createdAt,value
2023-10-05T00:02:10.348Z,96110.44
2023-10-05T00:04:44.957Z,96105.53
2023-10-05T00:07:21.280Z,96107.16
2023-10-05T00:09:50.031Z,96107.53
2023-10-05T00:12:21.899Z,96100.81
2023-10-05T00:15:14.399Z,96106.25
2023-10-05T00:17:43.298Z,96097.13
2023-10-05T00:20:23.300Z,96083.47
2023-10-05T00:22:52.949Z,96092.63
2023-10-05T00:25:24.867Z,96095.00
2023-10-05T00:27:55.283Z,96094.59
2023-10-05T00:30:25.368Z,96088.81
2023-10-05T00:32:58.045Z,96054.72
2023-10-05T00:35:28.539Z,96084.94
2023-10-05T00:38:09.462Z,96088.66
2023-10-05T00:40:44.198Z,96063.00
2023-10-05T00:43:25.604Z,96090.59
2023-10-05T00:45:59.250Z,96092.09
2023-10-05T00:48:36.098Z,96094.50
2023-10-05T00:51:13.962Z,96101.84
2023-10-05T00:53:43.584Z,96083.00
2023-10-05T00:56:13.893Z,96110.25
2023-10-05T00:58:45.966Z,96002.69
2023-10-05T01:01:24.607Z,96112.63
2023-10-05T01:04:20.421Z,96091.59
2023-10-05T01:06:56.469Z,96088.72
2023-10-05T01:09:42.091Z,96109.38
2023-10-05T01:12:23.426Z,96100.31
2023-10-05T01:14:54.018Z,96105.66
2023-10-05T01:17:27.743Z,96094.34
2023-10-05T01:19:59.330Z,96101.22
2023-10-05T01:22:34.090Z,96101.97
2023-10-05T01:25:06.442Z,96041.69
2023-10-05T01:27:35.250Z,96105.81
2023-10-05T01:30:05.198Z,96098.34
2023-10-05T01:32:34.416Z,96106.75
2023-10-05T01:35:11.276Z,96103.53
2023-10-05T01:37:41.176Z,96105.41
2023-10-05T01:40:21.165Z,96105.97
2023-10-05T01:42:53.024Z,96109.25
2023-10-05T01:45:26.372Z,96042.34
2023-10-05T01:47:55.822Z,96106.75
2023-10-05T01:50:24.860Z,96069.50
2023-10-05T01:53:02.753Z,96119.28
2023-10-05T01:55:35.944Z,96118.81
2023-10-05T01:58:05.138Z,96119.19
2023-10-05T02:00:39.386Z,96112.00
2023-10-05T02:03:09.329Z,96118.47
2023-10-05T02:05:38.584Z,96127.81
2023-10-05T02:08:08.075Z,96098.34
2023-10-05T02:10:41.690Z,96121.50
2023-10-05T02:13:13.963Z,96109.13
2023-10-05T02:15:43.093Z,96112.13
2023-10-05T02:18:23.582Z,96116.28
2023-10-05T02:20:57.795Z,96113.47
2023-10-05T02:23:30.154Z,96075.66
2023-10-05T02:26:06.746Z,96099.91
2023-10-05T02:28:36.489Z,96050.06
2023-10-05T02:31:10.205Z,96099.75
2023-10-05T02:33:42.174Z,96124.88
2023-10-05T02:36:18.480Z,96135.41
2023-10-05T02:38:55.148Z,96135.19
2023-10-05T02:41:39.542Z,96142.03
2023-10-05T02:44:21.119Z,96147.91
2023-10-05T02:46:49.852Z,96124.25
2023-10-05T02:49:20.223Z,96147.59
2023-10-05T02:51:49.163Z,96139.66
2023-10-05T02:54:20.515Z,96147.88
2023-10-05T02:56:50.900Z,96124.91
2023-10-05T02:59:22.008Z,96125.72
2023-10-05T03:01:51.416Z,96150.84
2023-10-05T03:04:23.168Z,96148.22
2023-10-05T03:06:54.455Z,96133.28
2023-10-05T03:09:25.432Z,96160.53
2023-10-05T03:11:56.320Z,96157.25
2023-10-05T03:14:24.844Z,96154.22
2023-10-05T03:16:58.596Z,96169.75
2023-10-05T03:19:28.227Z,96164.88
2023-10-05T03:21:59.649Z,96158.88
2023-10-05T03:24:28.201Z,96161.63
2023-10-05T03:26:58.052Z,96162.41
2023-10-05T03:29:27.067Z,96166.13
2023-10-05T03:32:03.993Z,96108.97
2023-10-05T03:34:33.860Z,96161.91
2023-10-05T03:37:05.552Z,96168.31
2023-10-05T03:39:40.336Z,96130.78
2023-10-05T03:42:14.679Z,96164.81
2023-10-05T03:44:46.103Z,96166.16
2023-10-05T03:47:14.657Z,96156.59
2023-10-05T03:49:57.662Z,96163.22
2023-10-05T03:52:31.329Z,96132.63
2023-10-05T03:55:05.953Z,96162.09
2023-10-05T03:57:36.229Z,96167.00
2023-10-05T04:00:19.755Z,96160.88
2023-10-05T04:02:49.020Z,96061.66
2023-10-05T04:05:19.705Z,96171.84
2023-10-05T04:07:49.376Z,96168.06
2023-10-05T04:10:22.720Z,96171.28
2023-10-05T04:12:54.585Z,96132.16
2023-10-05T04:15:23.173Z,96162.19
2023-10-05T04:17:52.005Z,96167.59
2023-10-05T04:20:28.459Z,96164.88
2023-10-05T04:22:56.967Z,96173.88
2023-10-05T04:25:25.791Z,96171.19
2023-10-05T04:27:57.040Z,96172.28
2023-10-05T04:30:25.703Z,96167.97
2023-10-05T04:32:54.868Z,96169.81
2023-10-05T04:35:27.646Z,96134.47
2023-10-05T04:37:56.496Z,96162.94
2023-10-05T04:40:26.715Z,96180.84
2023-10-05T04:43:00.517Z,96182.06
2023-10-05T04:45:29.610Z,96169.44
2023-10-05T04:48:00.608Z,96183.28
2023-10-05T04:50:29.541Z,96187.63
2023-10-05T04:53:02.175Z,96186.72
2023-10-05T04:55:34.288Z,96189.88
2023-10-05T04:58:22.778Z,96197.94
2023-10-05T05:01:17.014Z,96153.84
2023-10-05T05:03:57.656Z,96193.03
2023-10-05T05:06:28.599Z,96181.09
2023-10-05T05:08:57.218Z,96159.41
2023-10-05T05:11:26.961Z,96186.59
2023-10-05T05:13:56.746Z,96185.41
2023-10-05T05:16:25.491Z,96185.44
2023-10-05T05:18:56.971Z,96187.84
2023-10-05T05:21:25.559Z,96192.31
2023-10-05T05:23:54.135Z,96185.44
2023-10-05T05:26:22.632Z,96182.00
2023-10-05T05:28:51.138Z,96185.41
2023-10-05T05:31:22.568Z,96190.25
2023-10-05T05:33:51.282Z,96185.75
2023-10-05T05:36:19.767Z,96188.84
2023-10-05T05:38:50.737Z,96201.03
2023-10-05T05:41:21.030Z,96197.06
2023-10-05T05:43:50.103Z,96198.84
2023-10-05T05:46:19.176Z,96195.03
2023-10-05T05:48:54.210Z,96197.81
2023-10-05T05:51:25.013Z,96192.09
2023-10-05T05:53:54.061Z,96195.41
2023-10-05T05:56:30.409Z,96203.28
2023-10-05T05:58:59.426Z,96190.59
2023-10-05T06:01:28.381Z,96197.91
2023-10-05T06:03:58.629Z,96197.22
2023-10-05T06:06:27.428Z,96188.00
2023-10-05T06:08:58.165Z,96190.28
2023-10-05T06:11:26.555Z,96184.31
2023-10-05T06:13:55.007Z,96194.28
2023-10-05T06:16:23.538Z,96190.25
2023-10-05T06:18:52.940Z,96194.75
2023-10-05T06:21:22.921Z,96198.44
2023-10-05T06:23:52.112Z,96205.91
2023-10-05T06:26:20.725Z,96196.59
2023-10-05T06:28:49.713Z,96217.84
2023-10-05T06:31:18.267Z,96216.19
2023-10-05T06:33:47.878Z,96215.22
2023-10-05T06:36:21.247Z,96211.00
2023-10-05T06:38:56.178Z,96220.50
2023-10-05T06:41:24.697Z,96218.53
2023-10-05T06:43:53.198Z,96222.38
2023-10-05T06:46:28.155Z,96162.41
2023-10-05T06:48:58.712Z,96210.81
2023-10-05T06:51:28.543Z,96191.25
2023-10-05T06:53:59.476Z,96206.63
2023-10-05T06:56:29.009Z,96199.28
2023-10-05T06:58:57.678Z,96204.53
2023-10-05T07:01:26.294Z,96156.94
2023-10-05T07:03:56.958Z,96197.19
2023-10-05T07:06:26.248Z,96196.84
2023-10-05T07:08:54.707Z,96201.22
2023-10-05T07:11:25.773Z,96200.75
2023-10-05T07:13:54.502Z,96197.28
2023-10-05T07:16:22.928Z,96190.69
2023-10-05T07:18:51.595Z,96176.22
2023-10-05T07:21:21.839Z,96189.56
2023-10-05T07:23:50.229Z,96189.56
2023-10-05T07:26:18.841Z,96194.53
2023-10-05T07:28:49.672Z,96185.66
2023-10-05T07:31:18.322Z,96166.66
2023-10-05T07:33:47.086Z,96178.03
2023-10-05T07:36:16.215Z,96185.56
2023-10-05T07:38:45.684Z,96168.44
2023-10-05T07:41:14.225Z,96173.00
2023-10-05T07:43:46.149Z,96171.88
2023-10-05T07:46:19.114Z,96166.56
2023-10-05T07:48:48.380Z,96172.38
2023-10-05T07:51:17.810Z,96085.41
2023-10-05T07:53:46.691Z,96170.94
2023-10-05T07:56:15.365Z,96170.78
2023-10-05T07:58:46.274Z,96166.22
2023-10-05T08:01:16.380Z,96174.03
2023-10-05T08:03:46.526Z,96164.41
2023-10-05T08:06:16.749Z,96163.19
2023-10-05T08:08:45.299Z,96158.69
2023-10-05T08:11:17.217Z,96159.91
2023-10-05T08:13:45.847Z,96150.50
2023-10-05T08:16:14.963Z,96140.50
2023-10-05T08:18:44.636Z,96148.00
2023-10-05T08:21:14.684Z,96009.84
2023-10-05T08:23:43.877Z,96139.00
2023-10-05T08:26:14.120Z,96137.31
2023-10-05T08:28:42.590Z,96136.69
2023-10-05T08:31:12.660Z,96126.13
2023-10-05T08:33:41.250Z,96124.09
2023-10-05T08:36:14.184Z,96120.31
2023-10-05T08:38:45.286Z,96113.97
2023-10-05T08:41:16.384Z,96118.78
2023-10-05T08:43:48.222Z,96114.16
2023-10-05T08:46:21.092Z,96119.41
2023-10-05T08:48:50.796Z,96113.75
2023-10-05T08:51:26.180Z,96112.47
2023-10-05T08:53:59.368Z,96108.56
2023-10-05T08:56:27.888Z,96105.66
2023-10-05T08:58:56.248Z,96101.16
2023-10-05T09:01:27.114Z,96098.47
2023-10-05T09:04:02.809Z,96097.31
2023-10-05T09:06:33.755Z,96089.09
2023-10-05T09:09:16.327Z,96091.06
2023-10-05T09:11:44.998Z,96078.91
2023-10-05T09:14:19.458Z,96075.44
2023-10-05T09:16:56.970Z,96080.91
2023-10-05T09:19:31.302Z,96080.59
2023-10-05T09:22:14.096Z,96017.88
2023-10-05T09:24:44.988Z,96074.69
2023-10-05T09:27:19.765Z,96067.34
2023-10-05T09:29:48.934Z,96076.41
2023-10-05T09:32:27.073Z,96072.56
2023-10-05T09:34:58.032Z,96067.53
2023-10-05T09:37:31.087Z,96048.03
2023-10-05T09:40:02.316Z,96052.72
2023-10-05T09:42:36.401Z,96040.63
2023-10-05T09:45:14.309Z,95994.22
2023-10-05T09:47:44.119Z,96032.81
2023-10-05T09:50:14.654Z,96023.13
2023-10-05T09:52:47.580Z,96027.03
2023-10-05T09:55:19.204Z,96025.59
2023-10-05T09:57:56.032Z,96012.75
2023-10-05T10:00:32.010Z,96006.00
2023-10-05T10:03:02.575Z,95996.56
2023-10-05T10:05:37.806Z,95989.16
2023-10-05T10:08:14.621Z,95997.41
2023-10-05T10:10:52.981Z,95977.53
2023-10-05T10:13:24.569Z,95981.53
2023-10-05T10:15:58.322Z,95930.59
2023-10-05T10:18:38.847Z,95973.13
2023-10-05T10:21:14.389Z,95971.44
2023-10-05T10:23:53.274Z,95962.78
2023-10-05T10:26:25.857Z,95960.88
2023-10-05T10:29:09.170Z,95968.97
2023-10-05T10:31:44.806Z,95954.31
2023-10-05T10:34:21.159Z,95950.03
2023-10-05T10:36:53.736Z,95913.47
2023-10-05T10:39:26.185Z,95931.47
2023-10-05T10:42:03.054Z,95939.63
2023-10-05T10:44:44.804Z,95891.22
2023-10-05T10:47:13.657Z,95923.44
2023-10-05T10:49:42.432Z,95926.31
2023-10-05T10:52:20.123Z,95910.19
2023-10-05T10:55:02.952Z,95907.94
2023-10-05T10:57:32.904Z,95870.66
2023-10-05T11:00:15.094Z,95883.47
2023-10-05T11:02:43.875Z,95857.75
2023-10-05T11:05:18.445Z,95882.69
2023-10-05T11:07:50.714Z,95875.78
2023-10-05T11:10:23.101Z,95863.09
2023-10-05T11:12:55.637Z,95872.22
2023-10-05T11:15:31.873Z,95880.81
2023-10-05T11:18:05.835Z,95872.75
2023-10-05T11:20:37.907Z,95865.22
2023-10-05T11:23:12.202Z,95868.91
2023-10-05T11:25:54.606Z,95870.00
2023-10-05T11:28:32.062Z,95840.47
2023-10-05T11:31:24.187Z,95861.22
2023-10-05T11:34:43.685Z,95847.81
2023-10-05T11:36:41.219Z,95853.53
2023-10-05T11:39:22.668Z,95844.16
2023-10-05T11:41:53.865Z,95844.09
2023-10-05T11:44:25.421Z,95844.50
2023-10-05T11:46:55.340Z,95834.47
2023-10-05T11:49:32.667Z,95837.47
2023-10-05T11:52:01.973Z,95823.09
2023-10-05T11:54:32.432Z,95829.34
2023-10-05T11:57:06.227Z,95820.16
2023-10-05T11:59:37.143Z,95787.91
2023-10-05T12:02:07.281Z,95819.88
2023-10-05T12:04:36.672Z,95829.47
2023-10-05T12:07:06.385Z,95818.84
2023-10-05T12:09:36.379Z,95815.50
2023-10-05T12:12:11.868Z,95811.41
2023-10-05T12:14:40.950Z,95813.53
2023-10-05T12:17:10.000Z,95811.56
2023-10-05T12:19:40.566Z,95807.75
2023-10-05T12:22:15.380Z,95804.13
2023-10-05T12:24:43.896Z,95803.69
2023-10-05T12:27:22.161Z,95802.25
2023-10-05T12:29:51.310Z,95794.56
2023-10-05T12:32:19.792Z,95783.25
2023-10-05T12:34:49.553Z,95792.22
2023-10-05T12:37:19.281Z,95786.53
2023-10-05T12:39:48.612Z,95790.41
2023-10-05T12:42:21.639Z,95791.69
2023-10-05T12:44:52.633Z,95791.50
2023-10-05T12:47:21.675Z,95780.19
2023-10-05T12:49:50.379Z,95781.00
2023-10-05T12:52:18.950Z,95785.28
2023-10-05T12:54:47.555Z,95777.38
2023-10-05T12:57:20.943Z,95772.59
2023-10-05T12:59:51.444Z,95774.97
2023-10-05T13:02:20.392Z,95775.09
2023-10-05T13:04:49.023Z,95764.97
2023-10-05T13:07:23.855Z,95757.13
2023-10-05T13:10:01.482Z,95760.09
2023-10-05T13:12:32.987Z,95756.31
2023-10-05T13:15:05.535Z,95757.66
2023-10-05T13:17:39.414Z,95754.69
2023-10-05T13:20:16.225Z,95750.75
2023-10-05T13:22:46.260Z,95747.47
2023-10-05T13:25:15.226Z,95751.94
2023-10-05T13:27:45.403Z,95746.63
2023-10-05T13:30:23.911Z,95737.69
2023-10-05T13:32:59.395Z,95743.91
2023-10-05T13:35:31.321Z,95753.81
2023-10-05T13:38:07.855Z,95743.22
2023-10-05T13:40:37.689Z,95689.56
2023-10-05T13:43:08.645Z,95752.19
2023-10-05T13:45:38.276Z,95750.94
2023-10-05T13:48:10.335Z,95749.03
2023-10-05T13:50:39.210Z,95747.53
2023-10-05T13:53:08.093Z,95741.34
2023-10-05T13:55:36.590Z,95740.50
2023-10-05T13:58:05.371Z,95737.06
2023-10-05T14:00:35.319Z,95736.97
2023-10-05T14:03:04.589Z,95739.00
2023-10-05T14:05:33.133Z,95737.44
2023-10-05T14:08:04.095Z,95724.13
2023-10-05T14:10:32.829Z,95733.91
2023-10-05T14:13:01.491Z,95727.97
2023-10-05T14:15:31.654Z,95744.84
2023-10-05T14:18:01.769Z,95735.03
2023-10-05T14:20:30.287Z,95724.22
2023-10-05T14:22:58.776Z,95735.69
2023-10-05T14:25:28.192Z,95725.94
2023-10-05T14:27:56.638Z,95728.66
2023-10-05T14:30:26.076Z,95737.25
2023-10-05T14:32:55.799Z,95739.28
2023-10-05T14:35:28.290Z,95734.56
2023-10-05T14:37:56.661Z,95732.38
2023-10-05T14:40:28.147Z,95729.84
2023-10-05T14:42:58.196Z,95736.25
2023-10-05T14:45:28.412Z,95737.81
2023-10-05T14:48:03.395Z,95725.25
2023-10-05T14:50:34.754Z,95724.72
2023-10-05T14:53:06.124Z,95704.56
2023-10-05T14:55:35.091Z,95734.47
2023-10-05T14:58:09.508Z,95735.50
2023-10-05T15:00:38.882Z,95733.09
2023-10-05T15:03:07.461Z,95718.66
2023-10-05T15:05:38.407Z,95723.56
2023-10-05T15:08:09.763Z,95730.34
2023-10-05T15:10:38.295Z,95737.34
2023-10-05T15:13:07.784Z,95729.72
2023-10-05T15:15:36.373Z,95731.34
2023-10-05T15:18:05.326Z,95735.91
2023-10-05T15:20:33.935Z,95740.44
2023-10-05T15:23:03.826Z,95730.66
2023-10-05T15:25:34.734Z,95736.47
2023-10-05T15:28:03.328Z,95737.72
2023-10-05T15:30:32.325Z,95742.47
2023-10-05T15:33:00.821Z,95697.22
2023-10-05T15:35:29.333Z,95749.50
2023-10-05T15:37:58.070Z,95741.75
2023-10-05T15:40:32.546Z,95743.91
2023-10-05T15:43:01.837Z,95744.03
2023-10-05T15:45:30.210Z,95745.19
2023-10-05T15:47:59.262Z,95735.50
2023-10-05T15:50:30.027Z,95746.69
2023-10-05T15:53:02.147Z,95676.06
2023-10-05T15:55:32.047Z,95742.69
2023-10-05T15:58:00.768Z,95749.06
2023-10-05T16:00:32.857Z,95744.94
2023-10-05T16:03:02.528Z,95747.47
2023-10-05T16:05:34.362Z,95749.78
2023-10-05T16:08:06.851Z,95707.09
2023-10-05T16:10:38.117Z,95748.69
2023-10-05T16:13:09.123Z,95753.97
2023-10-05T16:15:40.168Z,95753.38
2023-10-05T16:18:11.748Z,95762.81
2023-10-05T16:20:42.520Z,95771.00
2023-10-05T16:23:13.007Z,95712.78
2023-10-05T16:25:43.500Z,95766.66
2023-10-05T16:28:11.968Z,95779.56
2023-10-05T16:30:40.625Z,95784.00
2023-10-05T16:33:11.406Z,95779.94
2023-10-05T16:35:41.827Z,95791.56
2023-10-05T16:38:10.998Z,95789.50
2023-10-05T16:40:40.860Z,95789.25
2023-10-05T16:43:11.657Z,95799.41
2023-10-05T16:45:41.027Z,95800.66
2023-10-05T16:48:10.425Z,95802.22
2023-10-05T16:50:39.420Z,95809.25
2023-10-05T16:53:07.856Z,95821.09
2023-10-05T16:55:36.393Z,95807.91
2023-10-05T16:58:05.332Z,95819.19
2023-10-05T17:00:36.648Z,95828.19
2023-10-05T17:03:07.895Z,95827.66
2023-10-05T17:05:39.139Z,95841.06
2023-10-05T17:08:08.002Z,95837.22
2023-10-05T17:10:36.420Z,95836.44
2023-10-05T17:13:04.978Z,95840.28
2023-10-05T17:15:35.060Z,95833.75
2023-10-05T17:18:03.622Z,95839.25
2023-10-05T17:20:32.090Z,95843.78
2023-10-05T17:23:00.678Z,95842.00
2023-10-05T17:25:29.350Z,95845.97
2023-10-05T17:27:57.970Z,95844.03
2023-10-05T17:30:26.737Z,95841.78
2023-10-05T17:32:56.700Z,95852.81
2023-10-05T17:35:25.200Z,95845.38
2023-10-05T17:37:57.188Z,95851.00
2023-10-05T17:40:25.735Z,95849.06
2023-10-05T17:42:54.493Z,95853.03
2023-10-05T17:45:22.976Z,95857.22
2023-10-05T17:47:52.895Z,95864.81
2023-10-05T17:50:22.761Z,95843.38
2023-10-05T17:52:51.243Z,95870.75
2023-10-05T17:55:19.618Z,95851.38
2023-10-05T17:57:48.233Z,95873.56
2023-10-05T18:00:17.982Z,95876.28
2023-10-05T18:02:48.408Z,95779.34
2023-10-05T18:05:17.740Z,95886.34
2023-10-05T18:07:48.051Z,95884.19
2023-10-05T18:10:17.889Z,95890.50
2023-10-05T18:12:46.410Z,95895.44
2023-10-05T18:15:17.068Z,95903.22
2023-10-05T18:17:46.132Z,95899.75
2023-10-05T18:20:16.259Z,95898.38
2023-10-05T18:22:45.393Z,95894.97
2023-10-05T18:25:19.082Z,95897.41
2023-10-05T18:27:47.920Z,95905.03
2023-10-05T18:30:16.296Z,95912.97
2023-10-05T18:32:44.844Z,95902.53
2023-10-05T18:35:13.730Z,95914.09
2023-10-05T18:37:42.229Z,95924.34
2023-10-05T18:40:12.307Z,95928.31
2023-10-05T18:42:45.342Z,95932.84
2023-10-05T18:45:15.390Z,95926.84
2023-10-05T18:47:44.180Z,95940.19
2023-10-05T18:50:14.166Z,95937.81
2023-10-05T18:52:44.295Z,95943.47
2023-10-05T18:55:13.118Z,95943.78
2023-10-05T18:57:43.087Z,95944.72
2023-10-05T19:00:12.366Z,95944.50
2023-10-05T19:02:41.382Z,95946.06
2023-10-05T19:05:11.730Z,95939.81
2023-10-05T19:07:41.227Z,95967.69
2023-10-05T19:10:12.217Z,95953.66
2023-10-05T19:12:43.548Z,95968.78
2023-10-05T19:15:15.065Z,95962.66
2023-10-05T19:17:43.661Z,95968.63
2023-10-05T19:20:12.667Z,95967.09
2023-10-05T19:22:41.307Z,95974.78
2023-10-05T19:25:09.974Z,95970.94
2023-10-05T19:27:38.537Z,95959.41
2023-10-05T19:30:14.635Z,95969.00
2023-10-05T19:32:44.336Z,95980.41
2023-10-05T19:35:13.945Z,95971.75
2023-10-05T19:37:42.421Z,95966.78
2023-10-05T19:40:11.686Z,95974.91
2023-10-05T19:42:40.067Z,95984.94
2023-10-05T19:45:11.993Z,95981.22
2023-10-05T19:47:40.564Z,95977.00
2023-10-05T19:50:10.056Z,95935.22
2023-10-05T19:52:38.697Z,95963.91
2023-10-05T19:55:07.534Z,95970.75
2023-10-05T19:57:35.948Z,95964.06
2023-10-05T20:00:11.874Z,95968.44
2023-10-05T20:02:42.237Z,95971.72
2023-10-05T20:05:11.565Z,95975.97
2023-10-05T20:07:41.189Z,95968.72
2023-10-05T20:10:10.204Z,95968.84
2023-10-05T20:12:38.766Z,95967.81
2023-10-05T20:15:08.264Z,95967.09
2023-10-05T20:17:38.242Z,95966.88
2023-10-05T20:20:13.058Z,95963.56
2023-10-05T20:22:42.645Z,95964.97
2023-10-05T20:25:12.805Z,95963.06
2023-10-05T20:27:43.332Z,95969.50
2023-10-05T20:30:12.971Z,95962.25
2023-10-05T20:32:41.686Z,95963.28
2023-10-05T20:35:13.060Z,95968.97
2023-10-05T20:37:42.705Z,95970.81
2023-10-05T20:40:12.525Z,95976.84
2023-10-05T20:42:42.780Z,95960.78
2023-10-05T20:45:12.565Z,95967.81
2023-10-05T20:47:41.593Z,95962.81
2023-10-05T20:50:12.743Z,95967.56
2023-10-05T20:52:41.250Z,95967.28
2023-10-05T20:55:10.491Z,95960.06
2023-10-05T20:57:39.377Z,95954.69
2023-10-05T21:00:10.079Z,95962.16
2023-10-05T21:02:38.595Z,95963.84
2023-10-05T21:05:07.567Z,95959.56
2023-10-05T21:07:37.810Z,95961.16
2023-10-05T21:10:07.332Z,95973.19
2023-10-05T21:12:35.970Z,95971.16
2023-10-05T21:15:05.159Z,95968.00
2023-10-05T21:17:33.732Z,95978.25
2023-10-05T21:20:02.876Z,95972.31
2023-10-05T21:22:31.400Z,95912.22
2023-10-05T21:25:01.268Z,95979.31
2023-10-05T21:27:29.726Z,95975.25
2023-10-05T21:29:58.483Z,95963.19
2023-10-05T21:32:29.410Z,95968.72
2023-10-05T21:34:58.826Z,95959.50
2023-10-05T21:37:27.298Z,95961.63
2023-10-05T21:39:55.864Z,95954.06
2023-10-05T21:42:25.718Z,95964.03
2023-10-05T21:44:56.749Z,95957.72
2023-10-05T21:47:25.277Z,95963.97
2023-10-05T21:49:53.896Z,95956.22
2023-10-05T21:52:22.437Z,95953.69
2023-10-05T21:54:50.863Z,95949.44
2023-10-05T21:57:19.209Z,95945.06
2023-10-05T21:59:49.094Z,95954.69
2023-10-05T22:02:17.657Z,95954.75
2023-10-05T22:04:46.343Z,95954.84
2023-10-05T22:07:14.903Z,95943.94
2023-10-05T22:09:43.516Z,95950.25
2023-10-05T22:12:12.882Z,95952.59
2023-10-05T22:14:41.288Z,95953.31
2023-10-05T22:17:11.359Z,95935.16
2023-10-05T22:19:44.384Z,95948.47
2023-10-05T22:22:13.075Z,95941.69
2023-10-05T22:24:42.338Z,95952.25
2023-10-05T22:27:10.713Z,95944.78
2023-10-05T22:29:39.233Z,95951.28
2023-10-05T22:32:07.649Z,95952.47
2023-10-05T22:34:37.563Z,95947.66
2023-10-05T22:37:06.332Z,95945.50
2023-10-05T22:39:34.733Z,95943.47
2023-10-05T22:42:03.191Z,95953.75
2023-10-05T22:44:31.625Z,95952.06
2023-10-05T22:47:00.389Z,95951.06
2023-10-05T22:49:47.173Z,95955.59
2023-10-05T22:52:17.005Z,95956.06
2023-10-05T22:54:45.785Z,95952.09
2023-10-05T22:57:14.287Z,95955.81
2023-10-05T22:59:44.363Z,95908.28
2023-10-05T23:02:15.520Z,95935.66
2023-10-05T23:04:44.305Z,95954.88
2023-10-05T23:07:12.797Z,95960.81
2023-10-05T23:09:45.618Z,95958.25
2023-10-05T23:12:14.632Z,95952.97
2023-10-05T23:14:49.926Z,95977.50
2023-10-05T23:17:18.906Z,95956.53
2023-10-05T23:19:47.666Z,95961.31
2023-10-05T23:22:16.227Z,95963.22
2023-10-05T23:24:47.582Z,95957.53
2023-10-05T23:27:16.014Z,95955.06
2023-10-05T23:29:44.553Z,95964.63
2023-10-05T23:32:13.157Z,95941.63
2023-10-05T23:34:43.062Z,95966.19
2023-10-05T23:37:12.186Z,95949.81
2023-10-05T23:39:41.648Z,95965.50
2023-10-05T23:42:13.860Z,95961.75
2023-10-05T23:44:47.846Z,95966.47
2023-10-05T23:47:24.507Z,95963.41
2023-10-05T23:49:54.806Z,95965.69
2023-10-05T23:52:24.172Z,95967.56
2023-10-05T23:54:53.430Z,95968.41
2023-10-05T23:57:23.317Z,95965.63
2023-10-05T23:59:52.833Z,95967.25
